Terminal Aerodrome Forecast
Issued by NWS

Home | Current Version | Previous Version | Text Only | Print | Product List | Glossary On
Versions: 1 2 3 4 5 6 7 8 9 10 11 12 13 14 15 16 17 18 19
238
FTUS42 KJAX 262334
TAFVQQ
TAF
KVQQ 262334Z 2700/2724 22007KT P6SM SCT060
     FM270300 00000KT P6SM SCT250
     FM271200 18006KT P6SM FEW030 FEW250
     FM271400 19011G18KT P6SM SCT050=

USA.gov is the U.S. government's official web portal to all federal, state and local government web resources and services.